BAW449 LEIB-EGLL
Flight info
| Callsign | BAW449 |
|---|---|
| Flight time | 2h 2m |
| Altitude | 38000 |
| Route | EPAMA4F EPAMA N856 EBROX DCT UMURE DCT XIKEN DCT KARES DCT ARBEK DCT REBUL DCT USKAR DCT MOPAS DCT GIROM DCT AGN DCT SECHE DCT UVELI DCT CNA DCT MANAK UY110 UPALO/N0436F340 UY110 REVTU UP87 ROXOG ROXOG1H |
| Aircraft | A319/M-SDE3FGIJ1KRWXY/LB1 |
Departure
| Time | 2026-04-30 17:54 |
|---|---|
| Airport | Ibiza Airport (LEIB) |
Arrival
| Time | 2026-04-30 19:56 |
|---|---|
| Airport | London Heathrow Airport (EGLL) |
| Time | Latitude | Longitude | Altitude | Speed | Heading |
|---|---|---|---|---|---|
| 2026-04-30 17:39 | 38.87406 | 1.36501 | 9 ft | 0 kts | 10° |
| 2026-04-30 17:48 | 38.87411 | 1.36519 | 9 ft | 2 kts | 86° |
| 2026-04-30 17:49 | 38.87417 | 1.36763 | 10 ft | 17 kts | 85° |
| 2026-04-30 17:50 | 38.87092 | 1.36391 | 8 ft | 25 kts | 242° |
| 2026-04-30 17:51 | 38.86847 | 1.35826 | 8 ft | 15 kts | 206° |
| 2026-04-30 17:52 | 38.86780 | 1.35847 | 8 ft | 0 kts | 153° |
| 2026-04-30 17:53 | 38.86798 | 1.36136 | 8 ft | 51 kts | 62° |
| 2026-04-30 17:54 | 38.88340 | 1.40239 | 1369 ft | 151 kts | 74° |
| 2026-04-30 17:55 | 38.89539 | 1.46936 | 3520 ft | 220 kts | 75° |
| 2026-04-30 17:56 | 38.91395 | 1.54731 | 6866 ft | 246 kts | 51° |
| 2026-04-30 17:57 | 38.95656 | 1.59747 | 8767 ft | 298 kts | 39° |
| 2026-04-30 17:58 | 39.00691 | 1.64769 | 11334 ft | 311 kts | 20° |
| 2026-04-30 17:59 | 39.09439 | 1.63445 | 13601 ft | 350 kts | 335° |
| 2026-04-30 18:00 | 39.18732 | 1.58800 | 16419 ft | 366 kts | 336° |
| 2026-04-30 18:00 | 39.25936 | 1.55229 | 18470 ft | 377 kts | 336° |
| 2026-04-30 18:01 | 39.30882 | 1.52780 | 19685 ft | 384 kts | 336° |
| 2026-04-30 18:02 | 39.38463 | 1.48998 | 21529 ft | 394 kts | 336° |
| 2026-04-30 18:02 | 39.46234 | 1.45116 | 23282 ft | 404 kts | 335° |
| 2026-04-30 18:03 | 39.54162 | 1.41132 | 24706 ft | 414 kts | 335° |
| 2026-04-30 18:04 | 39.62488 | 1.37748 | 26049 ft | 429 kts | 350° |
| 2026-04-30 18:05 | 39.74489 | 1.36173 | 27765 ft | 441 kts | 351° |
| 2026-04-30 18:06 | 39.86865 | 1.34515 | 29445 ft | 452 kts | 351° |
| 2026-04-30 18:07 | 39.99507 | 1.32836 | 30856 ft | 463 kts | 351° |
| 2026-04-30 18:08 | 40.09188 | 1.31544 | 31836 ft | 469 kts | 350° |
| 2026-04-30 18:09 | 40.22071 | 1.29804 | 33640 ft | 465 kts | 350° |
| 2026-04-30 18:10 | 40.34867 | 1.28085 | 35385 ft | 459 kts | 350° |
| 2026-04-30 18:11 | 40.47527 | 1.26365 | 36957 ft | 455 kts | 350° |
| 2026-04-30 18:11 | 40.56898 | 1.25102 | 38024 ft | 452 kts | 350° |
| 2026-04-30 18:13 | 40.72482 | 1.22981 | 38084 ft | 450 kts | 350° |
| 2026-04-30 18:14 | 40.87993 | 1.20850 | 38095 ft | 449 kts | 350° |
| 2026-04-30 18:15 | 41.06559 | 1.18297 | 38123 ft | 447 kts | 349° |
| 2026-04-30 18:16 | 41.18922 | 1.16624 | 38126 ft | 447 kts | 351° |
| 2026-04-30 18:17 | 41.25124 | 1.16018 | 38121 ft | 447 kts | 352° |
| 2026-04-30 18:18 | 41.34374 | 1.15117 | 38127 ft | 446 kts | 351° |
| 2026-04-30 18:18 | 41.40553 | 1.14461 | 38119 ft | 445 kts | 351° |
| 2026-04-30 18:19 | 41.46731 | 1.13797 | 38105 ft | 445 kts | 351° |
| 2026-04-30 18:19 | 41.52908 | 1.13142 | 38095 ft | 446 kts | 351° |
| 2026-04-30 18:20 | 41.59048 | 1.12492 | 38099 ft | 445 kts | 351° |
| 2026-04-30 18:20 | 41.65226 | 1.11844 | 38102 ft | 445 kts | 351° |
| 2026-04-30 18:21 | 41.71398 | 1.11185 | 38092 ft | 445 kts | 351° |
| 2026-04-30 18:21 | 41.77572 | 1.10538 | 38109 ft | 445 kts | 350° |
| 2026-04-30 18:22 | 41.83744 | 1.09889 | 38106 ft | 444 kts | 350° |
| 2026-04-30 18:22 | 41.92934 | 1.08898 | 38097 ft | 444 kts | 350° |
| 2026-04-30 18:23 | 41.99092 | 1.08237 | 38111 ft | 444 kts | 350° |
| 2026-04-30 18:23 | 42.05244 | 1.07580 | 38108 ft | 443 kts | 350° |
| 2026-04-30 18:24 | 42.14423 | 1.06599 | 38108 ft | 443 kts | 350° |
| 2026-04-30 18:25 | 42.20572 | 1.05934 | 38146 ft | 443 kts | 350° |
| 2026-04-30 18:25 | 42.29782 | 1.04931 | 38136 ft | 443 kts | 350° |
| 2026-04-30 18:26 | 42.38955 | 1.03918 | 38136 ft | 442 kts | 350° |
| 2026-04-30 18:27 | 42.48163 | 1.02925 | 38152 ft | 443 kts | 350° |
| 2026-04-30 18:28 | 42.57372 | 1.01927 | 38140 ft | 442 kts | 349° |
| 2026-04-30 18:28 | 42.66527 | 1.00919 | 38164 ft | 442 kts | 351° |
| 2026-04-30 18:29 | 42.78771 | 0.99604 | 38152 ft | 441 kts | 350° |
| 2026-04-30 18:30 | 42.90971 | 0.98257 | 38150 ft | 441 kts | 350° |
| 2026-04-30 18:31 | 43.00151 | 0.97242 | 38145 ft | 441 kts | 350° |
| 2026-04-30 18:32 | 43.09284 | 0.96230 | 38156 ft | 440 kts | 350° |
| 2026-04-30 18:33 | 43.18437 | 0.95209 | 38144 ft | 440 kts | 350° |
| 2026-04-30 18:33 | 43.27581 | 0.94183 | 38147 ft | 440 kts | 350° |
| 2026-04-30 18:34 | 43.36691 | 0.93171 | 38141 ft | 440 kts | 350° |
| 2026-04-30 18:35 | 43.42790 | 0.92474 | 38168 ft | 440 kts | 350° |
| 2026-04-30 18:35 | 43.48889 | 0.91784 | 38155 ft | 440 kts | 350° |
| 2026-04-30 18:36 | 43.58055 | 0.90753 | 38146 ft | 440 kts | 350° |
| 2026-04-30 18:37 | 43.67169 | 0.89742 | 38155 ft | 440 kts | 350° |
| 2026-04-30 18:37 | 43.73278 | 0.89056 | 38146 ft | 440 kts | 350° |
| 2026-04-30 18:38 | 43.79389 | 0.88371 | 38144 ft | 440 kts | 350° |
| 2026-04-30 18:38 | 43.85490 | 0.87678 | 38154 ft | 440 kts | 350° |
| 2026-04-30 18:39 | 43.91295 | 0.85685 | 38148 ft | 429 kts | 332° |
| 2026-04-30 18:39 | 43.96690 | 0.82204 | 38138 ft | 428 kts | 330° |
| 2026-04-30 18:40 | 44.02090 | 0.78724 | 38131 ft | 428 kts | 331° |
| 2026-04-30 18:40 | 44.07495 | 0.75247 | 38136 ft | 428 kts | 331° |
| 2026-04-30 18:41 | 44.12864 | 0.71774 | 38127 ft | 429 kts | 331° |
| 2026-04-30 18:41 | 44.18281 | 0.68257 | 38125 ft | 430 kts | 331° |
| 2026-04-30 18:42 | 44.23698 | 0.64727 | 38131 ft | 430 kts | 332° |
| 2026-04-30 18:42 | 44.31839 | 0.59406 | 38134 ft | 431 kts | 332° |
| 2026-04-30 18:45 | 44.61764 | 0.39654 | 38141 ft | 435 kts | 332° |
| 2026-04-30 18:46 | 44.67194 | 0.36039 | 38136 ft | 435 kts | 332° |
| 2026-04-30 18:46 | 44.72665 | 0.32385 | 38138 ft | 435 kts | 332° |
| 2026-04-30 18:47 | 44.78136 | 0.28724 | 38137 ft | 435 kts | 332° |
| 2026-04-30 18:47 | 44.83605 | 0.25059 | 38138 ft | 435 kts | 332° |
| 2026-04-30 18:48 | 44.89033 | 0.21407 | 38140 ft | 435 kts | 332° |
| 2026-04-30 18:48 | 44.94504 | 0.17724 | 38142 ft | 435 kts | 332° |
| 2026-04-30 18:49 | 44.99967 | 0.14041 | 38155 ft | 435 kts | 332° |
| 2026-04-30 18:49 | 45.05441 | 0.10330 | 38132 ft | 437 kts | 332° |
| 2026-04-30 18:50 | 45.10890 | 0.06616 | 38126 ft | 438 kts | 332° |
| 2026-04-30 18:50 | 45.16389 | 0.02875 | 38127 ft | 439 kts | 332° |
| 2026-04-30 18:51 | 45.21904 | -0.00874 | 38141 ft | 440 kts | 333° |
| 2026-04-30 18:51 | 45.27431 | -0.04637 | 38140 ft | 440 kts | 333° |
| 2026-04-30 18:52 | 45.32955 | -0.08407 | 38134 ft | 441 kts | 333° |
| 2026-04-30 18:52 | 45.38444 | -0.12157 | 38155 ft | 441 kts | 333° |
| 2026-04-30 18:53 | 45.43969 | -0.15949 | 38160 ft | 441 kts | 333° |
| 2026-04-30 18:53 | 45.49494 | -0.19764 | 38160 ft | 441 kts | 333° |
| 2026-04-30 18:54 | 45.55012 | -0.23579 | 38173 ft | 441 kts | 333° |
| 2026-04-30 18:54 | 45.60532 | -0.27394 | 38180 ft | 441 kts | 333° |
| 2026-04-30 18:55 | 45.65949 | -0.31337 | 38176 ft | 439 kts | 326° |
| 2026-04-30 18:55 | 45.73197 | -0.39314 | 38149 ft | 438 kts | 321° |
| 2026-04-30 18:56 | 45.80383 | -0.47400 | 38146 ft | 438 kts | 321° |
| 2026-04-30 18:57 | 45.87521 | -0.55490 | 38138 ft | 438 kts | 321° |
| 2026-04-30 18:57 | 45.92294 | -0.60918 | 38132 ft | 438 kts | 321° |
| 2026-04-30 18:58 | 45.99462 | -0.69081 | 38120 ft | 438 kts | 321° |
| 2026-04-30 18:59 | 46.06611 | -0.77262 | 38117 ft | 438 kts | 321° |
| 2026-04-30 19:00 | 46.16132 | -0.88174 | 38122 ft | 438 kts | 321° |
| 2026-04-30 19:01 | 46.25660 | -0.99169 | 38138 ft | 438 kts | 321° |
| 2026-04-30 19:02 | 46.32798 | -1.07432 | 38145 ft | 438 kts | 321° |
| 2026-04-30 19:03 | 46.42285 | -1.18453 | 38136 ft | 439 kts | 320° |
| 2026-04-30 19:04 | 46.51785 | -1.29549 | 38138 ft | 438 kts | 321° |
| 2026-04-30 19:05 | 46.61468 | -1.40186 | 38128 ft | 439 kts | 332° |
| 2026-04-30 19:06 | 46.72458 | -1.47961 | 38132 ft | 440 kts | 333° |
| 2026-04-30 19:06 | 46.80716 | -1.53831 | 38134 ft | 440 kts | 333° |
| 2026-04-30 19:07 | 46.89256 | -1.58465 | 38134 ft | 441 kts | 352° |
| 2026-04-30 19:08 | 47.01522 | -1.59791 | 38122 ft | 442 kts | 355° |
| 2026-04-30 19:09 | 47.10738 | -1.60740 | 38114 ft | 443 kts | 355° |
| 2026-04-30 19:09 | 47.16851 | -1.61369 | 38130 ft | 443 kts | 354° |
| 2026-04-30 19:10 | 47.29153 | -1.63018 | 38117 ft | 445 kts | 354° |
| 2026-04-30 19:11 | 47.38361 | -1.64301 | 38112 ft | 445 kts | 354° |
| 2026-04-30 19:12 | 47.44530 | -1.65178 | 38106 ft | 446 kts | 354° |
| 2026-04-30 19:12 | 47.50716 | -1.66063 | 38101 ft | 447 kts | 354° |
| 2026-04-30 19:13 | 47.63067 | -1.67822 | 38101 ft | 448 kts | 354° |
| 2026-04-30 19:14 | 47.69272 | -1.68709 | 38104 ft | 448 kts | 354° |
| 2026-04-30 19:14 | 47.75472 | -1.69599 | 38104 ft | 448 kts | 354° |
| 2026-04-30 19:15 | 47.81671 | -1.70494 | 38095 ft | 448 kts | 354° |
| 2026-04-30 19:15 | 47.89938 | -1.71684 | 38094 ft | 449 kts | 354° |
| 2026-04-30 19:16 | 47.96153 | -1.72583 | 38099 ft | 449 kts | 354° |
| 2026-04-30 19:17 | 48.06495 | -1.74088 | 38096 ft | 450 kts | 355° |
| 2026-04-30 19:17 | 48.14846 | -1.74290 | 38100 ft | 451 kts | 359° |
| 2026-04-30 19:18 | 48.24272 | -1.74362 | 38104 ft | 452 kts | 359° |
| 2026-04-30 19:19 | 48.30561 | -1.74428 | 38097 ft | 452 kts | 359° |
| 2026-04-30 19:19 | 48.40009 | -1.74549 | 38089 ft | 452 kts | 359° |
| 2026-04-30 19:20 | 48.46308 | -1.74632 | 38086 ft | 453 kts | 359° |
| 2026-04-30 19:21 | 48.55726 | -1.74745 | 38083 ft | 454 kts | 359° |
| 2026-04-30 19:22 | 48.68361 | -1.74899 | 38089 ft | 455 kts | 359° |
| 2026-04-30 19:23 | 48.87335 | -1.75143 | 38088 ft | 456 kts | 359° |
| 2026-04-30 19:24 | 48.96842 | -1.75097 | 38093 ft | 455 kts | 1° |
| 2026-04-30 19:25 | 49.12636 | -1.74371 | 38096 ft | 456 kts | 1° |
| 2026-04-30 19:26 | 49.25310 | -1.73898 | 38106 ft | 455 kts | 1° |
| 2026-04-30 19:27 | 49.34771 | -1.73543 | 38100 ft | 455 kts | 2° |
| 2026-04-30 19:28 | 49.44277 | -1.73173 | 38108 ft | 456 kts | 2° |
| 2026-04-30 19:29 | 49.56971 | -1.72680 | 38108 ft | 457 kts | 2° |
| 2026-04-30 19:30 | 49.69629 | -1.71830 | 38106 ft | 457 kts | 4° |
| 2026-04-30 19:31 | 49.82329 | -1.70650 | 38111 ft | 458 kts | 4° |
| 2026-04-30 19:31 | 49.91863 | -1.69854 | 36946 ft | 468 kts | 4° |
| 2026-04-30 19:32 | 49.95146 | -1.69579 | 35941 ft | 476 kts | 3° |
| 2026-04-30 19:32 | 49.98460 | -1.69257 | 35062 ft | 480 kts | 7° |
| 2026-04-30 19:32 | 50.01745 | -1.68315 | 34267 ft | 480 kts | 16° |
| 2026-04-30 19:32 | 50.04943 | -1.66791 | 33252 ft | 483 kts | 18° |
| 2026-04-30 19:33 | 50.08160 | -1.65229 | 32417 ft | 482 kts | 18° |
| 2026-04-30 19:33 | 50.11326 | -1.63695 | 31915 ft | 474 kts | 18° |
| 2026-04-30 19:33 | 50.14466 | -1.62176 | 31302 ft | 468 kts | 18° |
| 2026-04-30 19:33 | 50.17560 | -1.60680 | 30714 ft | 463 kts | 19° |
| 2026-04-30 19:34 | 50.20613 | -1.59191 | 30119 ft | 458 kts | 19° |
| 2026-04-30 19:34 | 50.23601 | -1.57729 | 29488 ft | 453 kts | 19° |
| 2026-04-30 19:34 | 50.29527 | -1.54836 | 28337 ft | 440 kts | 19° |
| 2026-04-30 19:35 | 50.32433 | -1.53418 | 27776 ft | 435 kts | 19° |
| 2026-04-30 19:35 | 50.35303 | -1.52015 | 27221 ft | 430 kts | 19° |
| 2026-04-30 19:35 | 50.38138 | -1.50627 | 26682 ft | 425 kts | 19° |
| 2026-04-30 19:35 | 50.40947 | -1.49251 | 26152 ft | 421 kts | 20° |
| 2026-04-30 19:36 | 50.43733 | -1.47886 | 25643 ft | 417 kts | 20° |
| 2026-04-30 19:36 | 50.46488 | -1.46531 | 25145 ft | 414 kts | 20° |
| 2026-04-30 19:36 | 50.51959 | -1.43828 | 24179 ft | 410 kts | 21° |
| 2026-04-30 19:37 | 50.54597 | -1.42205 | 23696 ft | 404 kts | 31° |
| 2026-04-30 19:37 | 50.57046 | -1.40122 | 23178 ft | 399 kts | 33° |
| 2026-04-30 19:37 | 50.59466 | -1.38042 | 22704 ft | 394 kts | 33° |
| 2026-04-30 19:37 | 50.61858 | -1.35991 | 22243 ft | 389 kts | 33° |
| 2026-04-30 19:38 | 50.64226 | -1.33966 | 21752 ft | 385 kts | 33° |
| 2026-04-30 19:38 | 50.66565 | -1.31960 | 21280 ft | 381 kts | 33° |
| 2026-04-30 19:38 | 50.68881 | -1.29969 | 20792 ft | 378 kts | 33° |
| 2026-04-30 19:38 | 50.71173 | -1.27992 | 20290 ft | 375 kts | 33° |
| 2026-04-30 19:39 | 50.73448 | -1.26021 | 19791 ft | 372 kts | 33° |
| 2026-04-30 19:39 | 50.75714 | -1.24054 | 19274 ft | 370 kts | 33° |
| 2026-04-30 19:39 | 50.77924 | -1.22024 | 18771 ft | 367 kts | 35° |
| 2026-04-30 19:39 | 50.80078 | -1.19873 | 18234 ft | 364 kts | 37° |
| 2026-04-30 19:40 | 50.82182 | -1.17671 | 17706 ft | 361 kts | 38° |
| 2026-04-30 19:40 | 50.84255 | -1.15466 | 17191 ft | 357 kts | 38° |
| 2026-04-30 19:40 | 50.86337 | -1.13250 | 16691 ft | 354 kts | 38° |
| 2026-04-30 19:40 | 50.88348 | -1.11124 | 16194 ft | 352 kts | 38° |
| 2026-04-30 19:41 | 50.90383 | -1.08989 | 15697 ft | 349 kts | 37° |
| 2026-04-30 19:41 | 50.92406 | -1.06881 | 15198 ft | 348 kts | 37° |
| 2026-04-30 19:41 | 50.94426 | -1.04783 | 14700 ft | 346 kts | 37° |
| 2026-04-30 19:41 | 50.96440 | -1.02695 | 14201 ft | 345 kts | 37° |
| 2026-04-30 19:42 | 50.98442 | -1.00617 | 13674 ft | 343 kts | 37° |
| 2026-04-30 19:42 | 51.00387 | -0.98447 | 13180 ft | 338 kts | 44° |
| 2026-04-30 19:42 | 51.02017 | -0.95808 | 12797 ft | 336 kts | 52° |
| 2026-04-30 19:42 | 51.03573 | -0.93027 | 12416 ft | 337 kts | 52° |
| 2026-04-30 19:43 | 51.05133 | -0.90258 | 12046 ft | 335 kts | 51° |
| 2026-04-30 19:43 | 51.06683 | -0.87512 | 11669 ft | 333 kts | 51° |
| 2026-04-30 19:43 | 51.08204 | -0.84811 | 11300 ft | 331 kts | 51° |
| 2026-04-30 19:44 | 51.11248 | -0.79377 | 10556 ft | 327 kts | 51° |
| 2026-04-30 19:44 | 51.12729 | -0.76728 | 10394 ft | 314 kts | 51° |
| 2026-04-30 19:44 | 51.14153 | -0.74183 | 10242 ft | 303 kts | 51° |
| 2026-04-30 19:44 | 51.15540 | -0.71700 | 10020 ft | 296 kts | 51° |
| 2026-04-30 19:45 | 51.16909 | -0.69247 | 9831 ft | 296 kts | 51° |
| 2026-04-30 19:45 | 51.18264 | -0.66815 | 9502 ft | 294 kts | 51° |
| 2026-04-30 19:45 | 51.19624 | -0.64373 | 9136 ft | 293 kts | 51° |
| 2026-04-30 19:45 | 51.20970 | -0.61953 | 8774 ft | 291 kts | 51° |
| 2026-04-30 19:46 | 51.22310 | -0.59536 | 8410 ft | 290 kts | 51° |
| 2026-04-30 19:46 | 51.23635 | -0.57142 | 8052 ft | 289 kts | 51° |
| 2026-04-30 19:46 | 51.24966 | -0.54731 | 7694 ft | 287 kts | 51° |
| 2026-04-30 19:46 | 51.26283 | -0.52359 | 7434 ft | 282 kts | 50° |
| 2026-04-30 19:47 | 51.27881 | -0.50578 | 7312 ft | 277 kts | 21° |
| 2026-04-30 19:47 | 51.29124 | -0.50238 | 7229 ft | 272 kts | 359° |
| 2026-04-30 19:47 | 51.31386 | -0.51603 | 7185 ft | 259 kts | 317° |
| 2026-04-30 19:47 | 51.32399 | -0.53907 | 7196 ft | 253 kts | 288° |
| 2026-04-30 19:48 | 51.32952 | -0.56544 | 7195 ft | 253 kts | 285° |
| 2026-04-30 19:48 | 51.33492 | -0.59215 | 7195 ft | 253 kts | 285° |
| 2026-04-30 19:48 | 51.34036 | -0.61902 | 7192 ft | 254 kts | 285° |
| 2026-04-30 19:48 | 51.34589 | -0.64629 | 7193 ft | 254 kts | 285° |
| 2026-04-30 19:49 | 51.35127 | -0.67305 | 6914 ft | 260 kts | 285° |
| 2026-04-30 19:49 | 51.36188 | -0.72746 | 6242 ft | 252 kts | 284° |
| 2026-04-30 19:49 | 51.36721 | -0.75384 | 5953 ft | 246 kts | 289° |
| 2026-04-30 19:50 | 51.37700 | -0.77533 | 5813 ft | 238 kts | 320° |
| 2026-04-30 19:50 | 51.39158 | -0.78599 | 5686 ft | 227 kts | 351° |
| 2026-04-30 19:50 | 51.40687 | -0.78731 | 5567 ft | 216 kts | 359° |
| 2026-04-30 19:50 | 51.42170 | -0.78803 | 5348 ft | 211 kts | 359° |
| 2026-04-30 19:51 | 51.43639 | -0.78883 | 5061 ft | 211 kts | 359° |
| 2026-04-30 19:51 | 51.45101 | -0.78967 | 4766 ft | 210 kts | 359° |
| 2026-04-30 19:51 | 51.46545 | -0.78785 | 4424 ft | 206 kts | 28° |
| 2026-04-30 19:51 | 51.47499 | -0.77299 | 4107 ft | 187 kts | 78° |
| 2026-04-30 19:52 | 51.47563 | -0.75388 | 4013 ft | 167 kts | 100° |
| 2026-04-30 19:52 | 51.47587 | -0.73572 | 3843 ft | 159 kts | 94° |
| 2026-04-30 19:52 | 51.47617 | -0.71820 | 3613 ft | 155 kts | 96° |
| 2026-04-30 19:52 | 51.47635 | -0.70120 | 3347 ft | 152 kts | 97° |
| 2026-04-30 19:53 | 51.47648 | -0.68440 | 3099 ft | 149 kts | 97° |
| 2026-04-30 19:53 | 51.47659 | -0.66778 | 2794 ft | 148 kts | 97° |
| 2026-04-30 19:53 | 51.47668 | -0.65135 | 2508 ft | 146 kts | 96° |
| 2026-04-30 19:53 | 51.47677 | -0.63497 | 2129 ft | 145 kts | 95° |
| 2026-04-30 19:54 | 51.47686 | -0.61886 | 1818 ft | 144 kts | 95° |
| 2026-04-30 19:54 | 51.47694 | -0.60305 | 1593 ft | 144 kts | 95° |
| 2026-04-30 19:54 | 51.47702 | -0.58697 | 1379 ft | 145 kts | 93° |
| 2026-04-30 19:54 | 51.47710 | -0.57068 | 1174 ft | 145 kts | 92° |
| 2026-04-30 19:55 | 51.47718 | -0.55562 | 964 ft | 127 kts | 91° |
| 2026-04-30 19:55 | 51.47724 | -0.54190 | 805 ft | 119 kts | 90° |
| 2026-04-30 19:55 | 51.47730 | -0.52883 | 648 ft | 116 kts | 90° |
| 2026-04-30 19:55 | 51.47736 | -0.51603 | 504 ft | 115 kts | 88° |
| 2026-04-30 19:56 | 51.47741 | -0.50241 | 342 ft | 116 kts | 89° |
| 2026-04-30 19:56 | 51.47747 | -0.48968 | 192 ft | 114 kts | 87° |
| 2026-04-30 19:56 | 51.47750 | -0.47711 | 88 ft | 97 kts | 90° |
| 2026-04-30 19:56 | 51.47755 | -0.46881 | 89 ft | 47 kts | 89° |
| 2026-04-30 19:57 | 51.47758 | -0.46352 | 89 ft | 50 kts | 89° |
| 2026-04-30 19:57 | 51.47680 | -0.46120 | 87 ft | 18 kts | 146° |
| 2026-04-30 19:57 | 51.47595 | -0.46122 | 87 ft | 14 kts | 254° |
| 2026-04-30 19:57 | 51.47594 | -0.46292 | 86 ft | 17 kts | 270° |
| 2026-04-30 19:58 | 51.47593 | -0.46501 | 86 ft | 21 kts | 269° |
| 2026-04-30 19:58 | 51.47592 | -0.46743 | 86 ft | 23 kts | 270° |
| 2026-04-30 19:58 | 51.47583 | -0.46993 | 88 ft | 18 kts | 270° |
| 2026-04-30 19:58 | 51.47582 | -0.47220 | 88 ft | 22 kts | 269° |
| 2026-04-30 19:59 | 51.47581 | -0.47460 | 86 ft | 20 kts | 269° |
| 2026-04-30 19:59 | 51.47580 | -0.47682 | 86 ft | 19 kts | 270° |
| 2026-04-30 19:59 | 51.47579 | -0.48157 | 86 ft | 23 kts | 270° |
| 2026-04-30 20:00 | 51.47578 | -0.48380 | 89 ft | 19 kts | 270° |
| 2026-04-30 20:00 | 51.47499 | -0.48476 | 86 ft | 16 kts | 181° |
| 2026-04-30 20:00 | 51.47391 | -0.48475 | 86 ft | 15 kts | 180° |
| 2026-04-30 20:00 | 51.47361 | -0.48516 | 87 ft | 5 kts | 268° |
| 2026-04-30 20:01 | 51.47361 | -0.48589 | 86 ft | 0 kts | 270° |